createdAt,value
2018-12-16T00:01:02.555Z,12.93
2018-12-16T00:03:30.685Z,12.93
2018-12-16T00:05:58.744Z,11.77
2018-12-16T00:08:26.840Z,11.83
2018-12-16T00:10:55.168Z,12.17
2018-12-16T00:13:23.247Z,12.67
2018-12-16T00:15:51.321Z,11.77
2018-12-16T00:18:19.399Z,12.63
2018-12-16T00:20:47.482Z,12.07
2018-12-16T00:23:15.888Z,12.13
2018-12-16T00:25:44.292Z,12.10
2018-12-16T00:28:12.694Z,12.20
2018-12-16T00:30:40.780Z,11.47
2018-12-16T00:33:09.173Z,11.37
2018-12-16T00:35:37.232Z,12.13
2018-12-16T00:38:05.307Z,13.13
2018-12-16T00:40:33.425Z,12.53
2018-12-16T00:43:01.511Z,12.20
2018-12-16T00:45:29.574Z,13.23
2018-12-16T00:47:57.744Z,12.67
2018-12-16T00:50:26.084Z,11.87
2018-12-16T00:52:54.158Z,12.13
2018-12-16T00:55:22.540Z,12.80
2018-12-16T00:57:50.993Z,12.73
2018-12-16T01:00:19.461Z,12.70
2018-12-16T01:02:47.946Z,12.30
2018-12-16T01:05:16.101Z,13.20
2018-12-16T01:07:44.450Z,12.60
2018-12-16T01:10:13.358Z,13.20
2018-12-16T01:12:41.775Z,13.57
2018-12-16T01:15:10.288Z,13.80
2018-12-16T01:17:38.363Z,14.00
2018-12-16T01:20:06.619Z,14.27
2018-12-16T01:22:34.686Z,13.83
2018-12-16T01:25:02.784Z,13.13
2018-12-16T01:27:31.225Z,14.37
2018-12-16T01:29:59.635Z,14.27
2018-12-16T01:32:28.110Z,13.23
2018-12-16T01:34:56.181Z,14.83
2018-12-16T01:37:24.249Z,14.93
2018-12-16T01:39:52.333Z,14.60
2018-12-16T01:42:20.422Z,14.43
2018-12-16T01:44:48.511Z,14.00
2018-12-16T01:47:16.911Z,14.87
2018-12-16T01:49:44.994Z,14.83
2018-12-16T01:52:13.057Z,14.03
2018-12-16T01:54:41.205Z,14.87
2018-12-16T01:57:09.268Z,14.93
2018-12-16T01:59:37.348Z,15.20
2018-12-16T02:02:05.439Z,15.37
2018-12-16T02:04:33.515Z,15.30
2018-12-16T02:07:01.642Z,15.97
2018-12-16T02:09:30.310Z,15.40
2018-12-16T02:11:58.403Z,15.30
2018-12-16T02:14:26.784Z,15.37
2018-12-16T02:16:54.870Z,16.90
2018-12-16T02:19:23.270Z,15.17
2018-12-16T02:21:51.380Z,17.17
2018-12-16T02:24:19.433Z,15.17
2018-12-16T02:26:47.483Z,16.17
2018-12-16T02:29:15.569Z,16.33
2018-12-16T02:31:43.634Z,16.37
2018-12-16T02:34:11.707Z,17.10
2018-12-16T02:36:39.845Z,15.57
2018-12-16T02:39:08.188Z,15.90
2018-12-16T02:41:36.247Z,16.43
2018-12-16T02:44:04.422Z,16.70
2018-12-16T02:46:32.824Z,16.43
2018-12-16T02:49:01.230Z,16.27
2018-12-16T02:51:29.910Z,16.13
2018-12-16T02:53:57.979Z,16.30
2018-12-16T02:56:26.053Z,17.00
2018-12-16T02:58:54.125Z,16.47
2018-12-16T03:01:22.263Z,17.07
2018-12-16T03:03:50.538Z,18.33
2018-12-16T03:06:18.637Z,17.57
2018-12-16T03:08:47.025Z,18.60
2018-12-16T03:11:15.437Z,18.83
2018-12-16T03:13:43.861Z,18.50
2018-12-16T03:16:12.261Z,17.93
2018-12-16T03:18:40.319Z,17.67
2018-12-16T03:21:08.397Z,17.30
2018-12-16T03:23:36.481Z,19.23
2018-12-16T03:26:04.860Z,18.23
2018-12-16T03:28:32.922Z,17.93
2018-12-16T03:31:00.987Z,17.77
2018-12-16T03:33:29.087Z,19.07
2018-12-16T03:35:57.172Z,17.97
2018-12-16T03:38:25.240Z,17.27
2018-12-16T03:40:53.306Z,17.43
2018-12-16T03:43:21.395Z,16.70
2018-12-16T03:45:49.802Z,16.77
2018-12-16T03:48:18.204Z,16.97
2018-12-16T03:50:46.617Z,18.23
2018-12-16T03:53:19.805Z,18.00
2018-12-16T03:55:45.388Z,17.27
2018-12-16T03:58:13.454Z,17.67
2018-12-16T04:00:41.537Z,16.90
2018-12-16T04:03:09.596Z,15.97
2018-12-16T04:05:37.692Z,15.27
2018-12-16T04:08:05.753Z,15.53
2018-12-16T04:10:33.870Z,16.50
2018-12-16T04:13:02.269Z,15.13
2018-12-16T04:15:30.653Z,16.37
2018-12-16T04:17:59.057Z,15.10
2018-12-16T04:20:27.473Z,14.47
2018-12-16T04:22:55.548Z,16.03
2018-12-16T04:25:23.802Z,15.93
2018-12-16T04:27:51.893Z,15.63
2018-12-16T04:30:19.976Z,15.83
2018-12-16T04:32:48.062Z,15.57
2018-12-16T04:35:16.130Z,15.03
2018-12-16T04:37:44.225Z,15.97
2018-12-16T04:40:12.333Z,16.03
2018-12-16T04:42:40.408Z,15.20
2018-12-16T04:45:08.486Z,15.53
2018-12-16T04:47:36.556Z,15.97
2018-12-16T04:50:04.894Z,14.80
2018-12-16T04:52:33.308Z,16.93
2018-12-16T04:55:01.731Z,17.17
2018-12-16T04:57:29.794Z,17.67
2018-12-16T04:59:57.895Z,16.63
2018-12-16T05:02:25.967Z,15.97
2018-12-16T05:04:54.057Z,16.40
2018-12-16T05:07:22.520Z,15.73
2018-12-16T05:09:50.612Z,15.53
2018-12-16T05:12:18.665Z,16.23
2018-12-16T05:14:46.750Z,15.67
2018-12-16T05:17:14.837Z,15.53
2018-12-16T05:19:42.892Z,15.87
2018-12-16T05:22:10.989Z,16.50
2018-12-16T05:24:39.057Z,16.57
2018-12-16T05:27:07.125Z,17.37
2018-12-16T05:29:35.213Z,17.47
2018-12-16T05:32:11.104Z,16.37
2018-12-16T05:34:39.546Z,16.73
2018-12-16T05:37:09.860Z,16.43
2018-12-16T05:39:40.010Z,17.67
2018-12-16T05:42:08.435Z,17.07
2018-12-16T05:44:42.390Z,16.03
2018-12-16T05:47:10.827Z,16.30
2018-12-16T05:49:42.211Z,16.07
2018-12-16T05:52:10.647Z,15.87
2018-12-16T05:54:43.697Z,15.73
2018-12-16T05:57:23.969Z,16.07
2018-12-16T05:59:52.372Z,15.03
2018-12-16T06:04:56.024Z,17.73
2018-12-16T06:07:24.198Z,16.90
2018-12-16T06:09:52.638Z,16.93
2018-12-16T06:12:21.077Z,17.77
2018-12-16T06:14:55.141Z,17.47
2018-12-16T06:17:23.649Z,18.37
2018-12-16T06:19:53.863Z,16.27
2018-12-16T06:22:24.462Z,18.23
2018-12-16T06:24:53.568Z,17.20
2018-12-16T06:27:22.004Z,16.87
2018-12-16T06:29:52.629Z,17.37
2018-12-16T06:32:21.063Z,16.27
2018-12-16T06:34:50.401Z,16.67
2018-12-16T06:37:18.822Z,15.43
2018-12-16T06:39:48.904Z,15.97
2018-12-16T06:42:17.585Z,15.90
2018-12-16T06:44:47.408Z,17.07
2018-12-16T06:47:15.852Z,15.67
2018-12-16T06:49:45.262Z,16.17
2018-12-16T06:52:13.688Z,15.67
2018-12-16T06:54:42.109Z,16.70
2018-12-16T06:57:10.184Z,15.90
2018-12-16T06:59:39.144Z,16.47
2018-12-16T07:02:07.564Z,15.87
2018-12-16T07:04:36.006Z,16.67
2018-12-16T07:07:04.428Z,15.97
2018-12-16T07:09:32.834Z,17.07
2018-12-16T07:12:01.266Z,17.23
2018-12-16T07:14:29.677Z,17.40
2018-12-16T07:16:58.151Z,15.90
2018-12-16T07:19:26.812Z,16.97
2018-12-16T07:21:55.333Z,16.70
2018-12-16T07:24:23.663Z,17.37
2018-12-16T07:26:52.062Z,17.47
2018-12-16T07:29:23.390Z,16.07
2018-12-16T07:31:51.792Z,16.53
2018-12-16T07:34:20.620Z,16.13
2018-12-16T07:36:49.053Z,16.40
2018-12-16T07:39:18.225Z,20.37
2018-12-16T07:41:46.869Z,24.97
2018-12-16T07:44:16.320Z,23.97
2018-12-16T07:46:44.723Z,24.23
2018-12-16T07:49:14.981Z,19.90
2018-12-16T07:51:43.405Z,18.97
2018-12-16T07:54:16.024Z,18.00
2018-12-16T07:56:42.963Z,18.70
2018-12-16T07:59:14.568Z,19.63
2018-12-16T08:01:52.950Z,16.60
2018-12-16T08:04:21.558Z,17.53
2018-12-16T08:06:50.783Z,18.00
2018-12-16T08:09:21.021Z,15.53
2018-12-16T08:11:50.659Z,16.87
2018-12-16T08:14:19.076Z,16.70
2018-12-16T08:16:47.182Z,16.53
2018-12-16T08:19:17.617Z,15.87
2018-12-16T08:21:46.951Z,15.57
2018-12-16T08:27:03.334Z,15.17
2018-12-16T08:29:32.128Z,15.73
2018-12-16T08:32:08.467Z,15.40
2018-12-16T08:34:36.872Z,14.93
2018-12-16T08:37:05.333Z,13.57
2018-12-16T08:39:35.183Z,13.73
2018-12-16T08:42:04.746Z,13.00
2018-12-16T08:44:33.767Z,14.63
2018-12-16T08:47:02.176Z,14.10
2018-12-16T08:49:30.601Z,14.17
2018-12-16T08:52:00.175Z,15.47
2018-12-16T08:54:30.406Z,14.33
2018-12-16T08:56:59.130Z,14.70
2018-12-16T08:59:27.618Z,15.20
2018-12-16T09:01:56.229Z,16.07
2018-12-16T09:04:26.027Z,15.27
2018-12-16T09:06:55.423Z,15.17
2018-12-16T09:09:24.240Z,14.07
2018-12-16T09:11:54.955Z,14.93
2018-12-16T09:14:23.416Z,14.97
2018-12-16T09:16:51.858Z,14.13
2018-12-16T09:19:20.284Z,14.20
2018-12-16T09:21:48.727Z,13.53
2018-12-16T09:24:17.123Z,14.00
2018-12-16T09:26:45.827Z,14.17
2018-12-16T09:29:14.826Z,14.03
2018-12-16T09:31:43.231Z,13.10
2018-12-16T09:34:11.659Z,12.87
2018-12-16T09:36:40.081Z,13.83
2018-12-16T09:39:08.522Z,13.80
2018-12-16T09:41:36.937Z,14.40
2018-12-16T09:44:05.341Z,13.17
2018-12-16T09:46:33.779Z,13.93
2018-12-16T09:49:02.202Z,13.33
2018-12-16T09:51:30.731Z,14.07
2018-12-16T09:53:59.163Z,13.27
2018-12-16T09:56:27.267Z,13.30
2018-12-16T09:58:55.696Z,13.20
2018-12-16T10:01:24.126Z,12.87
2018-12-16T10:03:52.543Z,13.33
2018-12-16T10:06:21.062Z,13.00
2018-12-16T10:08:49.465Z,12.77
2018-12-16T10:11:17.884Z,13.13
2018-12-16T10:13:46.263Z,13.23
2018-12-16T10:16:14.739Z,13.50
2018-12-16T10:18:43.222Z,12.50
2018-12-16T10:21:11.862Z,12.90
2018-12-16T10:23:40.272Z,12.43
2018-12-16T10:26:08.696Z,13.20
2018-12-16T10:28:37.134Z,13.13
2018-12-16T10:31:05.552Z,12.70
2018-12-16T10:33:33.976Z,12.30
2018-12-16T10:36:02.083Z,13.83
2018-12-16T10:38:30.513Z,12.87
2018-12-16T10:40:59.188Z,13.20
2018-12-16T10:43:27.279Z,12.33
2018-12-16T10:45:55.671Z,13.10
2018-12-16T10:48:24.106Z,12.83
2018-12-16T10:50:52.537Z,12.57
2018-12-16T10:53:20.969Z,13.47
2018-12-16T10:55:49.377Z,13.83
2018-12-16T10:58:17.812Z,14.10
2018-12-16T11:00:51.753Z,14.43
2018-12-16T11:03:20.273Z,16.20
2018-12-16T11:05:48.789Z,13.63
2018-12-16T11:08:17.213Z,16.50
2018-12-16T11:10:45.652Z,15.53
2018-12-16T11:13:14.144Z,14.40
2018-12-16T11:15:42.242Z,15.23
2018-12-16T11:18:10.647Z,14.90
2018-12-16T11:20:39.042Z,14.93
2018-12-16T11:23:07.466Z,15.13
2018-12-16T11:25:36.151Z,13.83
2018-12-16T11:28:04.565Z,14.43
2018-12-16T11:30:36.344Z,13.37
2018-12-16T11:33:04.436Z,13.27
2018-12-16T11:35:32.530Z,13.63
2018-12-16T11:38:00.695Z,14.63
2018-12-16T11:40:28.765Z,14.10
2018-12-16T11:42:56.837Z,13.57
2018-12-16T11:45:24.941Z,13.20
2018-12-16T11:47:53.453Z,13.40
2018-12-16T11:50:21.543Z,12.73
2018-12-16T11:52:49.626Z,13.77
2018-12-16T11:55:18.220Z,12.93
2018-12-16T11:57:46.474Z,13.30
2018-12-16T12:00:14.597Z,12.87
2018-12-16T12:02:42.686Z,13.17
2018-12-16T12:05:10.861Z,14.00
2018-12-16T12:07:39.007Z,12.70
2018-12-16T12:10:07.169Z,12.13
2018-12-16T12:12:35.249Z,12.70
2018-12-16T12:15:03.357Z,13.00
2018-12-16T12:17:31.765Z,12.83
2018-12-16T12:19:59.848Z,12.13
2018-12-16T12:22:27.940Z,12.80
2018-12-16T12:24:56.840Z,13.27
2018-12-16T12:27:24.909Z,12.23
2018-12-16T12:29:52.975Z,11.93
2018-12-16T12:32:21.096Z,11.57
2018-12-16T12:34:49.157Z,12.07
2018-12-16T12:37:17.256Z,11.87
2018-12-16T12:39:45.661Z,11.13
2018-12-16T12:42:13.743Z,11.83
2018-12-16T12:44:42.154Z,12.83
2018-12-16T12:47:10.593Z,11.83
2018-12-16T12:49:44.782Z,11.77
2018-12-16T12:52:09.441Z,11.30
2018-12-16T12:54:37.848Z,12.03
2018-12-16T12:57:06.262Z,11.40
2018-12-16T12:59:34.359Z,11.47
2018-12-16T13:02:03.652Z,11.23
2018-12-16T13:04:32.460Z,12.60
2018-12-16T13:07:00.890Z,11.70
2018-12-16T13:09:28.964Z,11.00
2018-12-16T13:11:57.374Z,11.00
2018-12-16T13:14:25.798Z,10.70
2018-12-16T13:16:53.857Z,10.30
2018-12-16T13:19:22.292Z,10.53
2018-12-16T13:21:50.710Z,10.90
2018-12-16T13:24:19.139Z,11.97
2018-12-16T13:26:47.208Z,11.37
2018-12-16T13:29:15.298Z,11.03
2018-12-16T13:31:43.704Z,11.07
2018-12-16T13:34:12.129Z,10.90
2018-12-16T13:36:40.237Z,12.60
2018-12-16T13:39:08.719Z,10.97
2018-12-16T13:41:37.149Z,10.60
2018-12-16T13:44:05.543Z,9.67
2018-12-16T13:46:33.957Z,10.93
2018-12-16T13:49:02.032Z,10.93
2018-12-16T13:51:30.461Z,11.90
2018-12-16T13:53:58.864Z,12.03
2018-12-16T13:56:26.935Z,11.17
2018-12-16T13:58:55.363Z,11.43
2018-12-16T14:01:23.764Z,12.30
2018-12-16T14:03:52.184Z,11.30
2018-12-16T14:06:20.588Z,11.67
2018-12-16T14:08:48.684Z,11.57
2018-12-16T14:11:18.750Z,10.90
2018-12-16T14:13:47.578Z,12.93
2018-12-16T14:16:15.978Z,11.80
2018-12-16T14:18:44.418Z,13.23
2018-12-16T14:21:12.827Z,14.17
2018-12-16T14:23:40.961Z,11.80
2018-12-16T14:26:09.378Z,12.20
2018-12-16T14:28:37.779Z,11.93
2018-12-16T14:31:06.191Z,11.13
2018-12-16T14:33:34.611Z,10.90
2018-12-16T14:36:02.716Z,11.90
2018-12-16T14:38:31.373Z,11.57
2018-12-16T14:40:59.792Z,11.03
2018-12-16T14:43:28.212Z,10.23
2018-12-16T14:45:56.644Z,10.00
2018-12-16T14:48:25.068Z,10.73
2018-12-16T14:50:53.478Z,10.67
2018-12-16T14:53:21.885Z,10.63
2018-12-16T14:55:55.121Z,10.07
2018-12-16T14:58:20.805Z,10.93
2018-12-16T15:00:49.277Z,10.73
2018-12-16T15:03:17.701Z,10.47
2018-12-16T15:05:46.109Z,10.00
2018-12-16T15:08:14.531Z,9.50
2018-12-16T15:10:42.937Z,10.73
2018-12-16T15:13:11.004Z,9.77
2018-12-16T15:15:39.434Z,10.10
2018-12-16T15:18:07.869Z,10.23
2018-12-16T15:20:36.287Z,11.13
2018-12-16T15:23:04.430Z,9.73
2018-12-16T15:25:33.063Z,9.90
2018-12-16T15:28:01.479Z,10.33
2018-12-16T15:30:29.552Z,10.10
2018-12-16T15:32:57.967Z,10.23
2018-12-16T15:35:26.372Z,9.83
2018-12-16T15:37:54.481Z,10.23
2018-12-16T15:40:22.975Z,10.83
2018-12-16T15:42:51.397Z,10.50
2018-12-16T15:45:19.792Z,10.00
2018-12-16T15:47:48.514Z,10.53
2018-12-16T15:50:17.180Z,9.47
2018-12-16T15:52:45.612Z,9.77
2018-12-16T15:55:13.727Z,9.60
2018-12-16T15:57:42.351Z,9.83
2018-12-16T16:00:11.004Z,10.70
2018-12-16T16:02:39.408Z,10.67
2018-12-16T16:05:07.974Z,10.53
2018-12-16T16:07:36.372Z,11.20
2018-12-16T16:10:06.367Z,9.73
2018-12-16T16:12:34.779Z,10.63
2018-12-16T16:15:02.843Z,9.37
2018-12-16T16:17:31.303Z,9.40
2018-12-16T16:20:01.654Z,9.47
2018-12-16T16:22:30.046Z,9.73
2018-12-16T16:24:59.001Z,9.97
2018-12-16T16:27:27.419Z,9.23
2018-12-16T16:29:55.531Z,9.10
2018-12-16T16:32:23.937Z,9.17
2018-12-16T16:34:52.375Z,9.60
2018-12-16T16:37:20.787Z,8.23
2018-12-16T16:39:49.322Z,9.47
2018-12-16T16:42:17.413Z,8.53
2018-12-16T16:44:45.858Z,9.23
2018-12-16T16:47:14.254Z,8.10
2018-12-16T16:49:42.657Z,8.17
2018-12-16T16:52:11.077Z,7.83
2018-12-16T16:54:39.203Z,7.67
2018-12-16T16:57:07.600Z,7.47
2018-12-16T16:59:36.058Z,7.50
2018-12-16T17:02:04.268Z,7.23
2018-12-16T17:04:32.811Z,7.03
2018-12-16T17:07:01.276Z,7.23
2018-12-16T17:09:29.679Z,8.93
2018-12-16T17:11:58.073Z,10.10
2018-12-16T17:14:26.506Z,10.40
2018-12-16T17:16:54.992Z,12.30
2018-12-16T17:19:23.245Z,14.63
2018-12-16T17:21:51.751Z,10.43
2018-12-16T17:24:20.151Z,9.03
2018-12-16T17:26:48.614Z,9.23
2018-12-16T17:29:17.012Z,9.57
2018-12-16T17:31:45.198Z,7.53
2018-12-16T17:34:13.277Z,7.80
2018-12-16T17:36:41.350Z,8.30
2018-12-16T17:39:09.468Z,8.00
2018-12-16T17:41:38.155Z,7.90
2018-12-16T17:44:06.723Z,6.90
2018-12-16T17:46:35.129Z,7.43
2018-12-16T17:49:03.528Z,6.43
2018-12-16T17:51:31.588Z,7.17
2018-12-16T17:54:00.077Z,8.70
2018-12-16T17:56:28.525Z,6.70
2018-12-16T17:58:56.731Z,6.57
2018-12-16T18:01:25.128Z,6.23
2018-12-16T18:03:53.266Z,6.37
2018-12-16T18:06:21.685Z,5.60
2018-12-16T18:08:50.087Z,5.17
2018-12-16T18:11:18.179Z,5.13
2018-12-16T18:13:46.640Z,4.67
2018-12-16T18:16:15.033Z,4.83
2018-12-16T18:18:43.133Z,4.67
2018-12-16T18:21:11.523Z,4.80
2018-12-16T18:23:39.959Z,5.00
2018-12-16T18:26:08.371Z,5.30
2018-12-16T18:28:36.838Z,5.60
2018-12-16T18:31:04.912Z,4.73
2018-12-16T18:33:33.546Z,4.73
2018-12-16T18:36:01.957Z,5.20
2018-12-16T18:38:30.381Z,4.60
2018-12-16T18:40:58.805Z,4.03
2018-12-16T18:43:26.958Z,4.30
2018-12-16T18:45:55.398Z,4.17
2018-12-16T18:48:23.835Z,4.13
2018-12-16T18:50:51.933Z,3.80
2018-12-16T18:53:20.334Z,4.30
2018-12-16T18:55:48.748Z,4.07
2018-12-16T18:58:17.145Z,4.80
2018-12-16T19:00:45.570Z,4.03
2018-12-16T19:03:13.967Z,4.30
2018-12-16T19:05:42.359Z,4.60
2018-12-16T19:08:10.781Z,4.43
2018-12-16T19:10:39.201Z,4.07
2018-12-16T19:13:07.836Z,4.13
2018-12-16T19:15:36.296Z,4.17
2018-12-16T19:18:04.729Z,4.67
2018-12-16T19:20:32.829Z,4.23
2018-12-16T19:23:01.223Z,4.73
2018-12-16T19:25:29.697Z,4.47
2018-12-16T19:27:58.099Z,3.73
2018-12-16T19:30:26.547Z,4.10
2018-12-16T19:32:54.659Z,4.20
2018-12-16T19:35:23.071Z,3.57
2018-12-16T19:37:51.469Z,4.20
2018-12-16T19:40:19.552Z,3.50
2018-12-16T19:42:47.973Z,3.50
2018-12-16T19:45:16.420Z,3.70
2018-12-16T19:47:49.585Z,3.60
2018-12-16T19:50:15.488Z,4.00
2018-12-16T19:52:43.872Z,3.67
2018-12-16T19:55:12.324Z,4.37
2018-12-16T19:57:40.762Z,3.57
2018-12-16T20:00:09.143Z,4.10
2018-12-16T20:02:37.555Z,3.87
2018-12-16T20:05:09.007Z,4.40
2018-12-16T20:07:37.509Z,3.87
2018-12-16T20:10:06.419Z,3.57
2018-12-16T20:12:35.622Z,3.43
2018-12-16T20:15:04.970Z,3.07
2018-12-16T20:17:33.390Z,3.50
2018-12-16T20:20:01.510Z,3.00
2018-12-16T20:22:29.963Z,3.77
2018-12-16T20:24:58.383Z,3.63
2018-12-16T20:27:26.810Z,3.93
2018-12-16T20:29:55.298Z,3.97
2018-12-16T20:32:23.381Z,3.60
2018-12-16T20:34:52.005Z,4.00
2018-12-16T20:37:20.391Z,3.77
2018-12-16T20:39:48.780Z,3.03
2018-12-16T20:42:17.189Z,3.13
2018-12-16T20:44:45.558Z,3.87
2018-12-16T20:47:13.969Z,3.20
2018-12-16T20:49:42.413Z,3.13
2018-12-16T20:52:10.816Z,3.33
2018-12-16T20:54:39.227Z,3.93
2018-12-16T20:57:07.328Z,3.50
2018-12-16T20:59:35.706Z,3.37
2018-12-16T21:02:04.120Z,3.80
2018-12-16T21:04:32.532Z,3.00
2018-12-16T21:07:00.947Z,3.10
2018-12-16T21:09:29.358Z,2.90
2018-12-16T21:12:00.684Z,2.90
2018-12-16T21:14:34.751Z,3.47
2018-12-16T21:17:08.495Z,2.70
2018-12-16T21:19:36.990Z,3.53
2018-12-16T21:22:08.629Z,2.63
2018-12-16T21:24:36.823Z,3.00
2018-12-16T21:27:05.569Z,2.40
2018-12-16T21:29:34.088Z,2.50
2018-12-16T21:32:02.493Z,2.60
2018-12-16T21:34:30.913Z,2.60
2018-12-16T21:36:59.417Z,2.43
2018-12-16T21:39:27.824Z,2.27
2018-12-16T21:41:55.984Z,2.50
2018-12-16T21:44:24.378Z,2.40
2018-12-16T21:46:52.797Z,2.03
2018-12-16T21:49:21.197Z,2.20
2018-12-16T21:51:49.591Z,1.87
2018-12-16T21:54:17.673Z,1.93
2018-12-16T21:56:46.371Z,2.10
2018-12-16T21:59:14.769Z,1.80
2018-12-16T22:01:43.187Z,2.00
2018-12-16T22:04:11.629Z,2.10
2018-12-16T22:06:39.773Z,1.57
2018-12-16T22:09:08.335Z,1.63
2018-12-16T22:11:36.755Z,4.37
2018-12-16T22:14:05.223Z,2.80
2018-12-16T22:16:33.650Z,3.00
2018-12-16T22:19:01.705Z,3.20
2018-12-16T22:21:30.200Z,2.10
2018-12-16T22:23:58.606Z,2.13
2018-12-16T22:26:27.019Z,1.57
2018-12-16T22:28:55.450Z,1.80
2018-12-16T22:31:23.512Z,1.70
2018-12-16T22:33:51.937Z,1.63
2018-12-16T22:36:20.372Z,1.20
2018-12-16T22:38:48.510Z,1.70
2018-12-16T22:41:17.107Z,2.20
2018-12-16T22:43:45.704Z,2.37
2018-12-16T22:46:14.553Z,1.70
2018-12-16T22:48:42.665Z,1.60
2018-12-16T22:51:11.056Z,1.90
2018-12-16T22:53:39.465Z,2.10
2018-12-16T22:56:07.563Z,1.93
2018-12-16T22:58:35.955Z,1.60
2018-12-16T23:01:10.035Z,1.90
2018-12-16T23:03:38.199Z,2.93
2018-12-16T23:06:06.261Z,1.70
2018-12-16T23:08:34.363Z,2.30
2018-12-16T23:11:02.849Z,2.40
2018-12-16T23:13:31.521Z,2.00
2018-12-16T23:15:59.926Z,2.00
2018-12-16T23:18:28.317Z,2.57
2018-12-16T23:20:56.727Z,1.77
2018-12-16T23:23:25.115Z,1.97
2018-12-16T23:25:53.531Z,2.17
2018-12-16T23:28:22.248Z,1.83
2018-12-16T23:30:50.307Z,2.00
2018-12-16T23:33:18.370Z,2.00
2018-12-16T23:35:46.444Z,2.43
2018-12-16T23:38:14.508Z,2.00
2018-12-16T23:40:42.909Z,2.17
2018-12-16T23:43:11.321Z,1.80
2018-12-16T23:45:42.626Z,2.20
2018-12-16T23:48:10.728Z,2.10
2018-12-16T23:50:38.824Z,2.00
2018-12-16T23:53:06.886Z,1.70
2018-12-16T23:55:35.275Z,2.47
2018-12-16T23:58:03.674Z,2.20
